createdAt,value
2019-01-28T00:00:38.005Z,38.9
2019-01-28T00:01:28.376Z,37.9
2019-01-28T00:02:18.126Z,37.3
2019-01-28T00:03:07.148Z,36.7
2019-01-28T00:03:58.028Z,36.3
2019-01-28T00:04:49.090Z,35.7
2019-01-28T00:05:38.360Z,34.7
2019-01-28T00:06:28.706Z,33.4
2019-01-28T00:07:18.693Z,35.3
2019-01-28T00:08:08.787Z,37.3
2019-01-28T00:08:59.001Z,38.3
2019-01-28T00:09:48.432Z,38.8
2019-01-28T00:10:38.968Z,38.1
2019-01-28T00:11:28.761Z,37.3
2019-01-28T00:12:20.428Z,36.8
2019-01-28T00:13:08.861Z,36.3
2019-01-28T00:13:59.724Z,35.9
2019-01-28T00:14:49.594Z,35.2
2019-01-28T00:15:38.813Z,34
2019-01-28T00:16:29.083Z,36.1
2019-01-28T00:17:19.248Z,37.8
2019-01-28T00:18:09.610Z,38.6
2019-01-28T00:18:59.557Z,39
2019-01-28T00:19:49.155Z,38.2
2019-01-28T00:20:39.639Z,37.4
2019-01-28T00:21:30.192Z,36.9
2019-01-28T00:22:20.323Z,36.4
2019-01-28T00:23:09.255Z,36
2019-01-28T00:23:59.342Z,35.3
2019-01-28T00:24:49.109Z,34.9
2019-01-28T00:25:38.657Z,37.2
2019-01-28T00:26:29.517Z,38.4
2019-01-28T00:27:20.322Z,39
2019-01-28T00:28:09.902Z,39
2019-01-28T00:29:00.246Z,38
2019-01-28T00:29:50.525Z,37.3
2019-01-28T00:30:40.054Z,36.8
2019-01-28T00:31:29.585Z,36.3
2019-01-28T00:32:19.902Z,35.8
2019-01-28T00:33:09.715Z,34.9
2019-01-28T00:34:00.044Z,35.1
2019-01-28T00:34:50.682Z,37.3
2019-01-28T00:35:40.506Z,38.4
2019-01-28T00:36:30.511Z,39
2019-01-28T00:37:21.295Z,38.8
2019-01-28T00:38:11.354Z,37.9
2019-01-28T00:39:01.254Z,37.2
2019-01-28T00:39:51.169Z,36.7
2019-01-28T00:40:40.674Z,36.3
2019-01-28T00:41:30.539Z,35.8
2019-01-28T00:42:20.871Z,36.6
2019-01-28T00:43:11.130Z,38.3
2019-01-28T00:44:01.857Z,39
2019-01-28T00:44:51.808Z,39.4
2019-01-28T00:45:41.866Z,38.9
2019-01-28T00:46:31.663Z,37.9
2019-01-28T00:47:21.678Z,37.3
2019-01-28T00:48:11.476Z,36.8
2019-01-28T00:49:02.383Z,36.4
2019-01-28T00:49:51.916Z,35.8
2019-01-28T00:50:41.638Z,35.1
2019-01-28T00:51:32.515Z,37.1
2019-01-28T00:52:21.758Z,38.4
2019-01-28T00:53:12.971Z,39
2019-01-28T00:54:02.153Z,39.2
2019-01-28T00:54:52.473Z,38.1
2019-01-28T00:55:42.806Z,37.4
2019-01-28T00:56:32.310Z,36.9
2019-01-28T00:57:22.735Z,36.4
2019-01-28T00:58:12.975Z,36
2019-01-28T00:59:03.341Z,35.9
2019-01-28T00:59:53.138Z,37.8
2019-01-28T01:00:43.418Z,38.9
2019-01-28T01:01:32.460Z,39.4
2019-01-28T01:02:21.912Z,39.6
2019-01-28T01:03:12.031Z,38.6
2019-01-28T01:04:02.642Z,37.8
2019-01-28T01:04:53.274Z,37.2
2019-01-28T01:05:42.670Z,36.6
2019-01-28T01:06:32.532Z,36.3
2019-01-28T01:07:22.610Z,36
2019-01-28T01:08:12.929Z,37.9
2019-01-28T01:09:02.705Z,38.9
2019-01-28T01:09:52.822Z,39.4
2019-01-28T01:10:42.882Z,39.1
2019-01-28T01:11:32.678Z,38.1
2019-01-28T01:12:23.269Z,37.4
2019-01-28T01:13:13.334Z,36.9
2019-01-28T01:14:02.884Z,36.4
2019-01-28T01:14:52.609Z,35.9
2019-01-28T01:15:42.986Z,37.4
2019-01-28T01:16:33.286Z,38.7
2019-01-28T01:17:23.071Z,39.4
2019-01-28T01:18:12.616Z,39.6
2019-01-28T01:19:03.864Z,38.8
2019-01-28T01:19:53.919Z,37.9
2019-01-28T01:20:43.440Z,37.3
2019-01-28T01:21:34.287Z,36.7
2019-01-28T01:22:23.924Z,36.3
2019-01-28T01:23:13.601Z,36.2
2019-01-28T01:24:03.931Z,38
2019-01-28T01:24:54.553Z,39
2019-01-28T01:25:43.558Z,39.5
2019-01-28T01:26:33.811Z,39.6
2019-01-28T01:27:25.013Z,38.4
2019-01-28T01:28:13.928Z,37.7
2019-01-28T01:29:05.116Z,37.1
2019-01-28T01:29:54.316Z,36.7
2019-01-28T01:30:44.393Z,36.3
2019-01-28T01:31:34.728Z,36.1
2019-01-28T01:32:24.791Z,38
2019-01-28T01:33:14.355Z,38.9
2019-01-28T01:34:04.934Z,39.4
2019-01-28T01:34:55.010Z,39.5
2019-01-28T01:35:45.029Z,38.4
2019-01-28T01:36:35.599Z,37.7
2019-01-28T01:37:24.832Z,37.1
2019-01-28T01:38:14.877Z,36.6
2019-01-28T01:39:04.750Z,36.2
2019-01-28T01:39:55.620Z,35.8
2019-01-28T01:40:45.079Z,37.8
2019-01-28T01:41:34.393Z,38.8
2019-01-28T01:42:24.681Z,39.4
2019-01-28T01:43:15.322Z,39.2
2019-01-28T01:44:05.315Z,38.2
2019-01-28T01:44:55.962Z,37.5
2019-01-28T01:45:45.952Z,36.9
2019-01-28T01:46:34.912Z,36.4
2019-01-28T01:47:26.144Z,35.9
2019-01-28T01:48:15.949Z,36.8
2019-01-28T01:49:06.162Z,38.4
2019-01-28T01:49:56.252Z,39.2
2019-01-28T01:50:46.589Z,39.6
2019-01-28T01:51:36.694Z,39
2019-01-28T01:52:26.161Z,38.1
2019-01-28T01:53:15.921Z,37.4
2019-01-28T01:54:06.574Z,36.9
2019-01-28T01:54:56.930Z,36.4
2019-01-28T01:55:46.093Z,37.1
2019-01-28T01:56:36.751Z,38.6
2019-01-28T01:57:26.819Z,39.4
2019-01-28T01:58:18.990Z,39.8
2019-01-28T01:59:06.894Z,39.3
2019-01-28T01:59:55.906Z,38.3
2019-01-28T02:00:47.051Z,37.6
2019-01-28T02:01:37.064Z,37.1
2019-01-28T02:02:34.878Z,36.6
2019-01-28T02:03:16.614Z,36.1
2019-01-28T02:04:07.243Z,35.9
2019-01-28T02:04:57.563Z,37.9
2019-01-28T02:05:46.771Z,38.9
2019-01-28T02:06:37.644Z,39.6
2019-01-28T02:07:26.600Z,39.8
2019-01-28T02:08:17.503Z,38.6
2019-01-28T02:09:07.888Z,37.8
2019-01-28T02:09:56.783Z,37.3
2019-01-28T02:10:47.678Z,36.8
2019-01-28T02:11:37.180Z,36.4
2019-01-28T02:12:27.293Z,38.1
2019-01-28T02:13:17.288Z,39.3
2019-01-28T02:14:06.783Z,39.8
2019-01-28T02:14:57.448Z,39.9
2019-01-28T02:15:46.428Z,38.8
2019-01-28T02:16:37.802Z,38
2019-01-28T02:17:28.120Z,37.3
2019-01-28T02:18:18.470Z,36.8
2019-01-28T02:19:07.985Z,36.4
2019-01-28T02:19:58.017Z,37.9
2019-01-28T02:20:48.357Z,39.1
2019-01-28T02:21:37.865Z,39.8
2019-01-28T02:22:28.459Z,40
2019-01-28T02:23:18.232Z,39.5
2019-01-28T02:24:08.580Z,38.4
2019-01-28T02:24:58.910Z,37.8
2019-01-28T02:25:48.217Z,37.1
2019-01-28T02:26:39.071Z,36.8
2019-01-28T02:27:28.815Z,36.8
2019-01-28T02:28:18.699Z,38.5
2019-01-28T02:29:08.370Z,39.5
2019-01-28T02:29:59.262Z,40
2019-01-28T02:30:48.795Z,40.2
2019-01-28T02:31:39.157Z,39.8
2019-01-28T02:32:29.799Z,38.6
2019-01-28T02:33:19.494Z,37.9
2019-01-28T02:34:09.032Z,37.3
2019-01-28T02:34:59.430Z,36.9
2019-01-28T02:35:49.109Z,36.4
2019-01-28T02:36:39.011Z,37.4
2019-01-28T02:37:29.872Z,38.8
2019-01-28T02:38:19.963Z,39.5
2019-01-28T02:39:08.964Z,39.9
2019-01-28T02:39:59.990Z,39.3
2019-01-28T02:40:49.789Z,38.3
2019-01-28T02:41:39.140Z,37.6
2019-01-28T02:42:29.105Z,37.1
2019-01-28T02:43:19.428Z,36.6
2019-01-28T02:44:09.997Z,37.5
2019-01-28T02:45:00.386Z,39
2019-01-28T02:45:50.137Z,39.7
2019-01-28T02:46:39.933Z,40
2019-01-28T02:47:29.643Z,39.8
2019-01-28T02:48:19.558Z,38.7
2019-01-28T02:49:09.477Z,37.9
2019-01-28T02:50:00.953Z,37.4
2019-01-28T02:50:49.905Z,36.9
2019-01-28T02:51:40.033Z,36.5
2019-01-28T02:52:30.299Z,38.1
2019-01-28T02:53:20.414Z,39.3
2019-01-28T02:54:10.114Z,39.8
2019-01-28T02:55:00.763Z,40
2019-01-28T02:55:50.352Z,38.9
2019-01-28T02:56:40.577Z,38.1
2019-01-28T02:57:30.343Z,37.5
2019-01-28T02:58:20.950Z,36.9
2019-01-28T02:59:11.281Z,37.6
2019-01-28T03:00:00.854Z,39.1
2019-01-28T03:00:50.162Z,39.8
2019-01-28T03:01:40.653Z,40.2
2019-01-28T03:02:30.810Z,40
2019-01-28T03:03:20.815Z,38.9
2019-01-28T03:04:11.425Z,38.2
2019-01-28T03:05:01.296Z,37.6
2019-01-28T03:08:33.462Z,40.3
2019-01-28T03:09:24.005Z,39.5
2019-01-28T03:10:14.665Z,38.6
2019-01-28T03:11:04.163Z,37.9
2019-01-28T03:11:53.697Z,37.3
2019-01-28T03:12:43.725Z,37
2019-01-28T03:13:34.085Z,38.7
2019-01-28T03:14:24.099Z,39.7
2019-01-28T03:15:14.241Z,40.1
2019-01-28T03:16:04.527Z,40.3
2019-01-28T03:16:54.586Z,39.5
2019-01-28T03:17:44.389Z,38.6
2019-01-28T03:18:35.027Z,37.9
2019-01-28T03:19:25.004Z,37.3
2019-01-28T03:20:14.369Z,36.9
2019-01-28T03:21:05.694Z,37.9
2019-01-28T03:21:54.926Z,39.3
2019-01-28T03:22:45.027Z,39.8
2019-01-28T03:23:35.466Z,40.2
2019-01-28T03:24:25.306Z,39.7
2019-01-28T03:25:15.639Z,38.7
2019-01-28T03:26:05.466Z,38.1
2019-01-28T03:26:55.786Z,37.5
2019-01-28T03:27:48.261Z,38.2
2019-01-28T03:28:36.114Z,39.5
2019-01-28T03:29:25.689Z,40.1
2019-01-28T03:30:16.134Z,40.4
2019-01-28T03:31:06.654Z,40.5
2019-01-28T03:31:55.742Z,39.7
2019-01-28T03:32:45.983Z,38.8
2019-01-28T03:33:35.831Z,38.1
2019-01-28T03:34:25.958Z,37.5
2019-01-28T03:35:16.566Z,38.6
2019-01-28T03:36:06.375Z,39.7
2019-01-28T03:36:56.415Z,40.1
2019-01-28T03:37:46.540Z,40.4
2019-01-28T03:38:35.471Z,39.9
2019-01-28T03:39:26.106Z,38.9
2019-01-28T03:40:16.666Z,38.2
2019-01-28T03:41:06.480Z,37.6
2019-01-28T03:41:57.003Z,37.4
2019-01-28T03:42:46.870Z,39.1
2019-01-28T03:43:37.197Z,39.9
2019-01-28T03:44:26.635Z,40.3
2019-01-28T03:45:16.179Z,40.6
2019-01-28T03:46:06.755Z,40.1
2019-01-28T03:46:57.133Z,38.9
2019-01-28T03:47:46.925Z,38.3
2019-01-28T03:48:37.195Z,37.7
2019-01-28T03:49:26.422Z,37.3
2019-01-28T03:50:17.383Z,38.8
2019-01-28T03:51:07.790Z,39.8
2019-01-28T03:51:57.195Z,40.1
2019-01-28T03:52:47.604Z,40.4
2019-01-28T03:53:37.279Z,39.7
2019-01-28T03:54:27.892Z,38.8
2019-01-28T03:55:17.707Z,38.1
2019-01-28T03:56:07.979Z,37.5
2019-01-28T03:56:57.772Z,38.8
2019-01-28T03:57:48.187Z,39.8
2019-01-28T03:58:38.146Z,40.3
2019-01-28T03:59:28.031Z,40.5
2019-01-28T04:00:17.987Z,40
2019-01-28T04:01:07.782Z,39
2019-01-28T04:01:57.873Z,38.3
2019-01-28T04:02:48.226Z,37.7
2019-01-28T04:03:37.693Z,37.1
2019-01-28T04:04:27.717Z,37.9
2019-01-28T04:05:18.741Z,39.3
2019-01-28T04:06:08.373Z,40
2019-01-28T04:06:57.896Z,40.4
2019-01-28T04:07:48.000Z,40.6
2019-01-28T04:08:38.551Z,40
2019-01-28T04:09:28.634Z,39
2019-01-28T04:10:18.723Z,38.3
2019-01-28T04:11:08.196Z,37.7
2019-01-28T04:11:58.518Z,38.7
2019-01-28T04:12:49.121Z,39.8
2019-01-28T04:13:38.944Z,40.3
2019-01-28T04:14:28.188Z,40.6
2019-01-28T04:15:19.008Z,40.7
2019-01-28T04:16:08.918Z,39.6
2019-01-28T04:16:59.201Z,38.8
2019-01-28T04:17:48.947Z,38.1
2019-01-28T04:18:38.982Z,37.6
2019-01-28T04:19:29.378Z,38.9
2019-01-28T04:20:19.449Z,39.9
2019-01-28T04:21:09.151Z,40.4
2019-01-28T04:21:58.967Z,40.6
2019-01-28T04:22:48.805Z,40.7
2019-01-28T04:23:39.023Z,39.5
2019-01-28T04:24:28.810Z,38.6
2019-01-28T04:25:34.620Z,38
2019-01-28T04:26:09.512Z,38.1
2019-01-28T04:26:59.520Z,39.2
2019-01-28T04:27:49.298Z,40.1
2019-01-28T04:28:39.074Z,40.5
2019-01-28T04:29:29.982Z,40.7
2019-01-28T04:30:19.852Z,40.7
2019-01-28T04:31:10.094Z,39.6
2019-01-28T04:31:59.330Z,38.7
2019-01-28T04:32:50.016Z,38.1
2019-01-28T04:33:40.218Z,38.6
2019-01-28T04:34:29.776Z,39.8
2019-01-28T04:35:20.219Z,40.4
2019-01-28T04:36:10.287Z,40.6
2019-01-28T04:36:59.652Z,40.6
2019-01-28T04:37:50.549Z,39.5
2019-01-28T04:38:40.446Z,38.7
2019-01-28T04:39:30.645Z,38
2019-01-28T04:40:20.266Z,38.3
2019-01-28T04:41:10.814Z,39.6
2019-01-28T04:42:01.144Z,40.3
2019-01-28T04:42:50.906Z,40.6
2019-01-28T04:43:40.129Z,40.7
2019-01-28T04:44:31.349Z,39.8
2019-01-28T04:45:21.659Z,38.9
2019-01-28T04:46:10.902Z,38.2
2019-01-28T04:47:00.885Z,37.6
2019-01-28T04:47:51.451Z,38.3
2019-01-28T04:48:41.073Z,39.7
2019-01-28T04:49:31.690Z,40.4
2019-01-28T04:50:20.902Z,40.7
2019-01-28T04:51:11.174Z,40.9
2019-01-28T04:52:01.223Z,40.9
2019-01-28T04:52:51.404Z,39.9
2019-01-28T04:53:41.286Z,39
2019-01-28T04:54:31.684Z,38.3
2019-01-28T04:55:21.263Z,37.9
2019-01-28T04:56:11.494Z,39.4
2019-01-28T04:57:01.599Z,40.3
2019-01-28T04:57:52.283Z,40.7
2019-01-28T04:58:42.031Z,40.9
2019-01-28T04:59:32.066Z,40.9
2019-01-28T05:00:22.660Z,40.2
2019-01-28T05:01:12.100Z,39.1
2019-01-28T05:02:02.165Z,38.4
2019-01-28T05:02:52.027Z,37.9
2019-01-28T05:03:41.728Z,38.3
2019-01-28T05:04:31.825Z,39.6
2019-01-28T05:05:22.234Z,40.1
2019-01-28T05:06:14.590Z,40.4
2019-01-28T05:07:01.976Z,40.4
2019-01-28T05:07:52.702Z,39.5
2019-01-28T05:08:42.355Z,38.5
2019-01-28T05:09:32.530Z,37.8
2019-01-28T05:10:22.014Z,37.3
2019-01-28T05:11:11.765Z,37.8
2019-01-28T05:12:02.724Z,39.1
2019-01-28T05:12:52.197Z,39.8
2019-01-28T05:13:42.485Z,40.1
2019-01-28T05:14:31.753Z,40.2
2019-01-28T05:15:22.997Z,39.1
2019-01-28T05:16:12.674Z,38.2
2019-01-28T05:17:02.194Z,37.6
2019-01-28T05:17:51.992Z,37
2019-01-28T05:18:42.870Z,37.8
2019-01-28T05:19:34.678Z,39.2
2019-01-28T05:20:23.284Z,39.9
2019-01-28T05:21:13.798Z,40.3
2019-01-28T05:22:03.098Z,40.5
2019-01-28T05:22:52.446Z,39.4
2019-01-28T05:23:43.691Z,38.7
2019-01-28T05:24:33.707Z,38.1
2019-01-28T05:25:23.061Z,37.5
2019-01-28T05:26:14.191Z,38.6
2019-01-28T05:27:03.411Z,39.9
2019-01-28T05:27:53.509Z,40.6
2019-01-28T05:28:43.277Z,40.9
2019-01-28T05:29:33.278Z,41.1
2019-01-28T05:30:23.457Z,40.9
2019-01-28T05:31:13.698Z,39.7
2019-01-28T05:32:03.518Z,38.9
2019-01-28T05:32:53.890Z,38.3
2019-01-28T05:33:43.844Z,38
2019-01-28T05:34:33.898Z,39.5
2019-01-28T05:35:24.050Z,40.4
2019-01-28T05:36:13.943Z,40.7
2019-01-28T05:37:04.875Z,40.8
2019-01-28T05:37:54.982Z,39.9
2019-01-28T05:38:44.126Z,39
2019-01-28T05:39:34.720Z,38.4
2019-01-28T05:40:24.591Z,37.9
2019-01-28T05:41:14.619Z,39.3
2019-01-28T05:42:04.632Z,40.3
2019-01-28T05:42:54.782Z,40.8
2019-01-28T05:43:43.585Z,41
2019-01-28T05:44:34.510Z,41.1
2019-01-28T05:45:24.864Z,40.6
2019-01-28T05:46:14.427Z,39.5
2019-01-28T05:47:04.484Z,38.8
2019-01-28T05:47:55.127Z,38.1
2019-01-28T05:48:44.857Z,38.3
2019-01-28T05:49:34.925Z,39.7
2019-01-28T05:50:24.420Z,40.4
2019-01-28T05:51:14.728Z,40.8
2019-01-28T05:52:04.819Z,40.9
2019-01-28T05:52:55.414Z,40.1
2019-01-28T05:53:45.669Z,39.2
2019-01-28T05:54:35.729Z,38.4
2019-01-28T05:55:25.517Z,37.9
2019-01-28T05:56:15.294Z,38.8
2019-01-28T05:57:05.932Z,40
2019-01-28T05:57:56.280Z,40.6
2019-01-28T05:58:45.837Z,40.9
2019-01-28T05:59:35.576Z,41.1
2019-01-28T06:00:25.873Z,41.2
2019-01-28T06:01:15.611Z,40.3
2019-01-28T06:02:06.528Z,39.3
2019-01-28T06:02:56.429Z,38.5
2019-01-28T06:03:46.665Z,37.9
2019-01-28T06:06:34.049Z,40.7
2019-01-28T06:07:39.101Z,41
2019-01-28T06:08:14.599Z,40.6
2019-01-28T06:09:04.987Z,39.8
2019-01-28T06:09:54.638Z,39
2019-01-28T06:10:58.838Z,38.3
2019-01-28T06:11:49.550Z,37.7
2019-01-28T06:12:30.308Z,39.4
2019-01-28T06:13:34.952Z,39.6
2019-01-28T06:14:38.733Z,40.3
2019-01-28T06:15:00.771Z,39.8
2019-01-28T06:15:50.602Z,39.3
2019-01-28T06:16:39.826Z,38.6
2019-01-28T06:17:30.663Z,37.9
2019-01-28T06:18:21.186Z,37.3
2019-01-28T06:19:38.480Z,37
2019-01-28T06:20:00.976Z,36.4
2019-01-28T06:20:49.778Z,36.1
2019-01-28T06:21:40.345Z,35.4
2019-01-28T06:22:43.971Z,34.6
2019-01-28T06:23:20.100Z,33.4
2019-01-28T06:25:00.203Z,31.8
2019-01-28T06:25:50.665Z,31.4
2019-01-28T06:26:39.945Z,30.8
2019-01-28T06:27:30.697Z,30.3
2019-01-28T06:28:20.377Z,29.9
2019-01-28T06:29:10.911Z,29.6
2019-01-28T06:29:59.740Z,29.3
2019-01-28T06:31:04.522Z,29
2019-01-28T06:31:41.287Z,28.8
2019-01-28T06:32:45.047Z,28.7
2019-01-28T06:33:20.432Z,28.5
2019-01-28T06:34:11.757Z,28.4
2019-01-28T07:06:34.254Z,26.6
2019-01-28T07:07:24.139Z,26.5
2019-01-28T07:08:14.401Z,26.4
2019-01-28T07:09:04.746Z,26.4
2019-01-28T07:09:53.731Z,26.3
2019-01-28T07:10:44.260Z,26.3
2019-01-28T07:11:34.419Z,26.2
2019-01-28T07:12:24.373Z,26.2
2019-01-28T07:13:14.142Z,26.1
2019-01-28T07:14:04.761Z,26.1
2019-01-28T07:14:54.291Z,26
2019-01-28T07:15:45.168Z,25.9
2019-01-28T07:16:35.026Z,25.9
2019-01-28T07:17:25.295Z,25.8
2019-01-28T07:18:15.045Z,25.8
2019-01-28T07:19:05.095Z,25.8
2019-01-28T07:19:54.110Z,25.7
2019-01-28T07:20:44.940Z,25.6
2019-01-28T07:21:34.178Z,25.6
2019-01-28T07:22:24.527Z,25.5
2019-01-28T07:23:15.380Z,25.4
2019-01-28T07:24:05.747Z,25.4
2019-01-28T07:24:55.520Z,25.4
2019-01-28T07:25:45.866Z,25.3
2019-01-28T07:26:35.045Z,25.3
2019-01-28T07:27:25.252Z,25.2
2019-01-28T07:28:15.520Z,25.2
2019-01-28T07:29:05.590Z,25.1
2019-01-28T07:29:55.349Z,25.1
2019-01-28T07:30:45.667Z,25.1
2019-01-28T07:31:35.212Z,25
2019-01-28T07:32:25.314Z,24.9
2019-01-28T07:33:15.012Z,24.9
2019-01-28T07:34:05.367Z,24.9
2019-01-28T07:34:55.537Z,24.8
2019-01-28T07:35:45.750Z,24.8
2019-01-28T07:36:35.540Z,24.7
2019-01-28T07:37:25.317Z,24.6
2019-01-28T07:38:15.599Z,24.6
2019-01-28T07:39:07.122Z,24.6
2019-01-28T07:39:56.517Z,24.5
2019-01-28T07:40:45.742Z,24.5
2019-01-28T07:41:36.079Z,24.4
2019-01-28T07:42:26.671Z,24.4
2019-01-28T07:43:16.741Z,24.3
2019-01-28T07:44:05.952Z,24.3
2019-01-28T07:44:56.287Z,24.3
2019-01-28T07:45:53.669Z,24.3
2019-01-28T07:46:36.458Z,24.2
2019-01-28T07:47:26.441Z,24.1
2019-01-28T07:48:16.783Z,24.1
2019-01-28T07:49:07.131Z,24.1
2019-01-28T07:49:56.366Z,24
2019-01-28T07:50:46.491Z,23.9
2019-01-28T07:51:37.061Z,23.9
2019-01-28T07:52:27.361Z,23.9
2019-01-28T07:53:17.410Z,23.9
2019-01-28T07:54:06.971Z,23.8
2019-01-28T07:54:57.585Z,23.8
2019-01-28T07:55:47.601Z,23.8
2019-01-28T07:56:37.416Z,23.8
2019-01-28T07:57:27.751Z,23.7
2019-01-28T07:58:17.768Z,23.7
2019-01-28T07:59:07.238Z,23.7
2019-01-28T07:59:57.333Z,23.6
2019-01-28T08:00:47.955Z,23.6
2019-01-28T08:01:37.990Z,23.6
2019-01-28T08:02:27.478Z,23.6
2019-01-28T08:03:18.100Z,23.5
2019-01-28T08:04:08.145Z,23.5
2019-01-28T08:04:58.458Z,23.4
2019-01-28T08:05:48.615Z,23.4
2019-01-28T08:06:38.657Z,23.4
2019-01-28T08:07:28.092Z,23.3
2019-01-28T08:08:17.890Z,23.3
2019-01-28T08:09:08.180Z,23.3
2019-01-28T08:09:58.532Z,23.3
2019-01-28T08:10:48.414Z,23.2
2019-01-28T08:11:38.383Z,23.2
2019-01-28T08:12:28.954Z,23.1
2019-01-28T08:13:18.792Z,23.1
2019-01-28T08:14:08.904Z,23.1
2019-01-28T08:14:58.880Z,23.1
2019-01-28T08:15:48.952Z,23.1
2019-01-28T08:16:39.312Z,23
2019-01-28T08:17:28.497Z,23
2019-01-28T08:18:18.659Z,22.9
2019-01-28T08:19:09.176Z,22.9
2019-01-28T08:19:58.736Z,22.9
2019-01-28T08:20:49.289Z,22.9
2019-01-28T08:21:38.761Z,22.8
2019-01-28T08:22:28.844Z,22.9
2019-01-28T08:23:19.759Z,22.8
2019-01-28T08:24:09.846Z,22.8
2019-01-28T08:24:59.564Z,22.8
2019-01-28T08:25:49.376Z,22.8
2019-01-28T08:26:39.959Z,21.8
2019-01-28T08:27:28.889Z,21.2
2019-01-28T08:28:19.522Z,22.1
2019-01-28T08:29:09.313Z,22.8
2019-01-28T08:29:59.624Z,23.6
2019-01-28T08:30:49.982Z,24.3
2019-01-28T08:31:40.068Z,25
2019-01-28T08:32:30.534Z,25.7
2019-01-28T08:33:19.289Z,26.3
2019-01-28T08:34:09.909Z,27
2019-01-28T08:35:00.286Z,27.6
2019-01-28T08:35:50.006Z,28.2
2019-01-28T08:36:40.614Z,28.8
2019-01-28T08:37:29.658Z,29.1
2019-01-28T08:38:20.453Z,29.4
2019-01-28T08:39:10.536Z,29.6
2019-01-28T08:40:01.840Z,29.8
2019-01-28T08:40:50.630Z,29.6
2019-01-28T08:41:40.395Z,29.3
2019-01-28T08:42:29.620Z,29
2019-01-28T08:43:22.186Z,28.8
2019-01-28T08:44:10.863Z,28.7
2019-01-28T08:45:00.173Z,28.6
2019-01-28T08:45:52.945Z,28.5
2019-01-28T08:46:41.029Z,28.4
2019-01-28T08:47:30.862Z,28.4
2019-01-28T08:48:26.615Z,28.3
2019-01-28T08:49:09.895Z,28.2
2019-01-28T08:50:00.782Z,28.2
2019-01-28T08:50:50.850Z,27.8
2019-01-28T08:51:41.402Z,27.3
2019-01-28T08:52:31.229Z,27.1
2019-01-28T08:53:20.459Z,26.9
2019-01-28T08:54:10.760Z,26.8
2019-01-28T08:55:01.427Z,26.6
2019-01-28T08:55:51.189Z,26.6
2019-01-28T08:56:41.679Z,26.5
2019-01-28T08:57:30.437Z,26.2
2019-01-28T08:58:21.322Z,26.1
2019-01-28T08:59:11.092Z,26.9
2019-01-28T09:00:01.425Z,27.4
2019-01-28T09:00:51.847Z,27.9
2019-01-28T09:01:41.622Z,28.5
2019-01-28T09:02:31.371Z,29
2019-01-28T09:03:21.691Z,29.5
2019-01-28T09:04:11.714Z,29.8
2019-01-28T09:05:01.950Z,29.9
2019-01-28T09:05:51.849Z,30.1
2019-01-28T09:06:41.316Z,30.2
2019-01-28T09:07:31.677Z,30.4
2019-01-28T09:08:20.877Z,30.5
2019-01-28T09:09:12.071Z,30.3
2019-01-28T09:10:02.122Z,29.4
2019-01-28T09:10:51.348Z,29
2019-01-28T09:11:42.246Z,28.7
2019-01-28T09:12:32.313Z,28.5
2019-01-28T09:13:22.056Z,28.4
2019-01-28T09:14:12.320Z,28.3
2019-01-28T09:15:04.433Z,28.1
2019-01-28T09:15:52.048Z,28.1
2019-01-28T09:16:42.265Z,27.9
2019-01-28T09:17:32.670Z,27.9
2019-01-28T09:18:30.108Z,27.8
2019-01-28T09:19:13.233Z,27.1
2019-01-28T09:20:04.773Z,26.8
2019-01-28T09:20:53.348Z,26.5
2019-01-28T09:21:42.895Z,26.3
2019-01-28T09:22:32.953Z,26.2
2019-01-28T09:23:23.778Z,26.1
2019-01-28T09:24:12.833Z,25.8
2019-01-28T09:25:02.303Z,26.1
2019-01-28T09:25:53.952Z,26.9
2019-01-28T09:26:42.967Z,27.5
2019-01-28T09:27:32.525Z,28.1
2019-01-28T09:28:22.782Z,28.6
2019-01-28T09:29:12.569Z,29.2
2019-01-28T09:30:03.915Z,29.4
2019-01-28T09:30:55.437Z,28.8
2019-01-28T09:31:42.490Z,28.4
2019-01-28T09:32:33.843Z,28.2
2019-01-28T09:33:23.729Z,28.1
2019-01-28T09:34:14.577Z,27.9
2019-01-28T09:35:03.541Z,27.9
2019-01-28T09:35:54.625Z,27.8
2019-01-28T09:36:43.927Z,27.7
2019-01-28T09:37:34.321Z,27.6
2019-01-28T09:38:23.796Z,27.6
2019-01-28T09:39:13.916Z,27.4
2019-01-28T09:40:04.535Z,26.9
2019-01-28T09:40:54.486Z,26.5
2019-01-28T09:41:44.317Z,26.3
2019-01-28T09:42:34.574Z,26.1
2019-01-28T09:43:24.383Z,25.9
2019-01-28T09:44:14.930Z,25.6
2019-01-28T09:45:04.373Z,26.1
2019-01-28T09:45:54.818Z,26.8
2019-01-28T09:46:44.795Z,27.4
2019-01-28T09:47:35.212Z,28
2019-01-28T09:48:24.162Z,28.6
2019-01-28T09:49:16.985Z,29.2
2019-01-28T09:50:05.597Z,29.2
2019-01-28T09:50:55.082Z,28.8
2019-01-28T09:51:45.047Z,28.4
2019-01-28T09:52:35.487Z,28.3
2019-01-28T09:53:30.803Z,28.2
2019-01-28T09:54:15.312Z,28
2019-01-28T09:55:05.289Z,27.9
2019-01-28T09:55:55.508Z,27.9
2019-01-28T09:57:35.367Z,27.8
2019-01-28T09:58:25.876Z,27.6
2019-01-28T09:59:16.257Z,27.6
2019-01-28T10:00:06.331Z,27.4
2019-01-28T10:00:56.157Z,26.8
2019-01-28T10:01:46.152Z,26.4
2019-01-28T10:02:35.691Z,26.2
2019-01-28T10:03:26.026Z,26
2019-01-28T10:04:16.324Z,25.6
2019-01-28T10:05:05.824Z,26.4
2019-01-28T10:07:33.499Z,28.1
2019-01-28T10:08:23.831Z,28.8
2019-01-28T10:09:17.834Z,29.4
2019-01-28T10:10:03.970Z,29.2
2019-01-28T10:10:53.776Z,28.9
2019-01-28T10:11:44.385Z,28.7
2019-01-28T10:12:36.200Z,28.6
2019-01-28T10:13:23.887Z,28.4
2019-01-28T10:14:13.678Z,28.4
2019-01-28T10:15:03.521Z,28.3
2019-01-28T10:15:54.406Z,28.2
2019-01-28T10:16:44.938Z,28.1
2019-01-28T10:17:34.724Z,28.1
2019-01-28T10:18:24.273Z,27.9
2019-01-28T10:19:14.561Z,27.9
2019-01-28T10:20:04.233Z,27.6
2019-01-28T10:20:54.146Z,27.1
2019-01-28T10:21:44.223Z,26.8
2019-01-28T10:22:34.793Z,26.6
2019-01-28T10:23:26.002Z,26.4
2019-01-28T10:24:15.480Z,26.1
2019-01-28T10:25:04.558Z,26.2
2019-01-28T10:25:59.187Z,27
2019-01-28T10:26:44.580Z,27.7
2019-01-28T10:27:34.588Z,28.2
2019-01-28T10:28:25.478Z,28.8
2019-01-28T10:29:14.420Z,29.4
2019-01-28T10:30:05.099Z,29.8
2019-01-28T10:30:54.540Z,29.9
2019-01-28T10:31:45.421Z,30.1
2019-01-28T10:32:43.380Z,30.2
2019-01-28T10:33:25.559Z,30.4
2019-01-28T10:34:14.867Z,30.5
2019-01-28T10:35:05.417Z,30.6
2019-01-28T10:35:54.319Z,30.8
2019-01-28T10:36:45.248Z,30.9
2019-01-28T10:37:34.992Z,30.8
2019-01-28T10:38:26.157Z,29.9
2019-01-28T10:39:15.468Z,29.3
2019-01-28T10:40:08.105Z,29
2019-01-28T10:40:55.622Z,28.8
2019-01-28T10:41:45.818Z,28.6
2019-01-28T10:42:35.680Z,28.4
2019-01-28T10:43:26.229Z,28.3
2019-01-28T10:44:17.991Z,28.3
2019-01-28T10:45:05.896Z,28.2
2019-01-28T10:45:56.393Z,28.1
2019-01-28T10:46:46.533Z,28
2019-01-28T10:47:35.992Z,27.4
2019-01-28T10:48:25.991Z,27
2019-01-28T10:49:15.901Z,26.8
2019-01-28T10:50:06.318Z,26.6
2019-01-28T10:50:57.027Z,26.4
2019-01-28T10:51:45.936Z,26.3
2019-01-28T10:52:36.339Z,26.1
2019-01-28T10:53:26.621Z,26.1
2019-01-28T10:54:16.418Z,26.9
2019-01-28T10:55:07.133Z,27.7
2019-01-28T10:55:57.087Z,28.3
2019-01-28T10:56:46.097Z,28.9
2019-01-28T10:57:37.225Z,29.2
2019-01-28T10:58:27.263Z,29.7
2019-01-28T10:59:17.366Z,29.9
2019-01-28T11:00:14.444Z,30.1
2019-01-28T11:00:57.445Z,29.3
2019-01-28T11:01:47.535Z,28.6
2019-01-28T11:02:37.557Z,27.4
2019-01-28T11:03:27.110Z,26.5
2019-01-28T11:04:16.690Z,25.6
2019-01-28T11:05:07.543Z,24.5
2019-01-28T11:05:57.235Z,23.4
2019-01-28T11:06:47.875Z,22.3
2019-01-28T11:07:38.165Z,22
2019-01-28T11:08:27.144Z,22
2019-01-28T11:09:17.423Z,22.9
2019-01-28T11:10:08.086Z,24.2
2019-01-28T11:10:57.697Z,25.1
2019-01-28T11:11:50.460Z,26.1
2019-01-28T11:12:38.887Z,26.9
2019-01-28T11:13:28.168Z,27.8
2019-01-28T11:14:18.601Z,28.6
2019-01-28T11:15:08.130Z,29.4
2019-01-28T11:15:59.153Z,29.9
2019-01-28T11:16:49.687Z,30.2
2019-01-28T11:17:38.935Z,30.5
2019-01-28T11:18:29.137Z,30.7
2019-01-28T11:19:17.469Z,30.9
2019-01-28T11:20:09.557Z,31.1
2019-01-28T11:20:59.430Z,30.5
2019-01-28T11:21:50.399Z,29.9
2019-01-28T11:22:37.977Z,29.6
2019-01-28T11:23:29.301Z,29.4
2019-01-28T11:24:19.605Z,29.3
2019-01-28T11:25:09.289Z,29.1
2019-01-28T11:25:59.869Z,29.1
2019-01-28T11:26:49.496Z,28.9
2019-01-28T11:27:40.706Z,28.9
2019-01-28T11:28:30.275Z,28.8
2019-01-28T11:29:20.444Z,28.7
2019-01-28T11:30:11.455Z,28.6
2019-01-28T11:31:00.489Z,27.9
2019-01-28T11:31:50.168Z,27.9
2019-01-28T11:32:40.678Z,28.6
2019-01-28T11:33:29.369Z,29.3
2019-01-28T11:34:19.849Z,29.6
2019-01-28T11:35:11.094Z,29.8
2019-01-28T11:36:09.015Z,30.1
2019-01-28T11:36:50.302Z,30.4
2019-01-28T11:37:40.753Z,30.6
2019-01-28T11:38:29.962Z,30.8
2019-01-28T11:39:20.041Z,31
2019-01-28T11:40:10.857Z,31.2
2019-01-28T11:41:01.610Z,30.4
2019-01-28T11:41:50.730Z,29.9
2019-01-28T11:42:42.761Z,29.7
2019-01-28T11:43:30.940Z,29.4
2019-01-28T11:44:20.424Z,29.3
2019-01-28T11:45:11.801Z,29.1
2019-01-28T11:46:01.313Z,29
2019-01-28T11:46:51.516Z,28.9
2019-01-28T11:47:41.534Z,28.8
2019-01-28T11:48:33.366Z,28.8
2019-01-28T11:49:22.043Z,28.8